This is the latest recevied weather packets stored in our database for station/object KF7ROW. If no packets are shown the sender has not sent any weather packets the latest 10 day(s).
| Time | Temp. | Humidity | Pressure | Rain* | Wind** | Luminosity | Snow |
|---|---|---|---|---|---|---|---|
| 1777855341 | 20° C | 68% | 1013.2 hPa | 0 mm | - | 288 W/m² | - |
| 1777855038 | 20° C | 68% | 1013.2 hPa | 0 mm | - | 301 W/m² | - |
| 1777854735 | 20° C | 68% | 1013.3 hPa | 0 mm | - | 315 W/m² | - |
| 1777854432 | 20° C | 69% | 1013.3 hPa | 0 mm | - | 330 W/m² | - |
| 1777854129 | 20° C | 69% | 1013.3 hPa | 0 mm | - | 348 W/m² | - |
| 1777853827 | 20° C | 67% | 1013.3 hPa | 0 mm | - | 363 W/m² | - |
| 1777853523 | 20° C | 68% | 1013.4 hPa | 0 mm | - | 377 W/m² | - |
| 1777853220 | 20° C | 69% | 1013.3 hPa | 0 mm | - | 389 W/m² | - |
| 1777852917 | 20° C | 68% | 1013.2 hPa | 0 mm | - | 403 W/m² | - |
| 1777852615 | 20.56° C | 68% | 1013.3 hPa | 0 mm | - | 418 W/m² | - |
| 1777852311 | 20.56° C | 67% | 1013.1 hPa | 0 mm | - | 432 W/m² | - |
| 1777852010 | 20.56° C | 67% | 1013.1 hPa | 0 mm | - | 446 W/m² | - |
| 1777851708 | 21.11° C | 64% | 1013.3 hPa | 0 mm | - | 458 W/m² | - |
| 1777851404 | 21.67° C | 63% | 1013.1 hPa | 0 mm | - | 472 W/m² | - |
| 1777851100 | 22.22° C | 61% | 1013.2 hPa | 0 mm | - | 484 W/m² | - |
| 1777850797 | 22.22° C | 62% | 1013.1 hPa | 0 mm | - | 498 W/m² | - |
| 1777850494 | 22.22° C | 62% | 1013 hPa | 0 mm | - | 510 W/m² | - |
| 1777850192 | 22.78° C | 58% | 1012.9 hPa | 0 mm | - | 519 W/m² | - |
| 1777849888 | 22.78° C | 63% | 1013.2 hPa | 0 mm | - | 536 W/m² | - |
| 1777849585 | 22.22° C | 62% | 1012.9 hPa | 0 mm | - | 547 W/m² | - |
| 1777849283 | 22.78° C | 61% | 1013 hPa | 0 mm | - | 559 W/m² | - |
| 1777848980 | 22.78° C | 59% | 1013.2 hPa | 0 mm | - | 570 W/m² | - |
| 1777848679 | 22.22° C | 63% | 1013.1 hPa | 0 mm | - | 583 W/m² | - |
| 1777848377 | 22.78° C | 60% | 1013.3 hPa | 0 mm | - | 593 W/m² | - |
| 1777848075 | 22.78° C | 57% | 1013.2 hPa | 0 mm | - | 606 W/m² | - |
* Rain latest hour (hover to see other rain measurements)
** Current wind speed in m/s (hover to see current wind gust speed)